الصفحة الرئيسية
METAR-TAF:

METAR-TAF

مطار :

مطار تيد ستيفنز أنكوراج الدولي

أنكوراج, ألاسكا, الولايات المتحدة

دائرة عرض: 61-10-28N, خط طول: 149-59-46W, ارتفاع: 44 متر

مراقبة الطقس الحالي

تاريخ ووقت الإصدار 56 دقيقة قبل الساعة 15:53UTC
ريح 6 عقدة من الشمال/الشمال الغربي
درجة الحرارة 2°درجة مئوية
الرطوبة 60%
ضغط 1019 hPa
الرؤية: 16.1 كم
غيوم قليلة على ارتفاع 7500 قدم
غيوم مفككة على ارتفاع 20000 قدم

METAR: PANC 251553Z 34006KT 10SM FEW075 BKN200 02/M05 A3008 RMK AO2 SLP188 T00171050

زمن: 08:49 (16:49 UTC)

توقعات

تاريخ ووقت الإصدار 5ساعات و 26 دقيقة قبل الساعة 11:23UTC
التوقعات صالحة من25 الساعة 12 UTC إلى 26 الساعة 18 UTC
ريح 6 عقدة من الشمال
الرؤية: 10 كم
غيوم مفككة على ارتفاع 8000 قدم
من 26 الساعة 0000 UTC
ريح 8 عقدة من الجنوب
الرؤية: 10 كم
غيوم متفرقة على ارتفاع 8000 قدم
غيوم مفككة على ارتفاع 15000 قدم
من 26 الساعة 0800 UTC
ريح 5 عقدة من الشمال
الرؤية: 10 كم
سماء صافية

TAF: PANC 251123Z 2512/2618 36006KT P6SM BKN080 FM260000 17008KT P6SM SCT080 BKN150 FM260800 35005KT P6SM SKC

أرصاد الطقس والتوقعات من أكثر من 4000 مطار (تقارير الطقس للمطار METAR والتنبؤ بالطقس بالمطارTAF).

المحطات المتاحة هي النقط الصفراء والحمراء على الخريطة.

حرك المؤشر فوق النقطة لمعرفة اسم المحطة.

ثم انقر لمعرفة أرصاد وتوقعات الطقس.

لتغيير الخارطة: اضغط على الأزرار الخضراء مع رمز الصليب الأسود للتكبير. على الزر الأخضر مع شرطة للتصغير، أو على الأسهم الخضراء للخرائط المجاورة.


METAR-TAF: